»·PEaware :: DAL1211 KSLC-KLAX

DAL1211 :: KSLC-KLAX

FLIGHT INFORMATION

Flight Status: Arrived
Operator:
Delta Air Lines
More flights by this operator :: More flights under this callsign
Pilot: Jake M. (20491)
Aircraft: AIRBUS A320
(A320)
More flights by this aircraft type
Origin: KSLC Salt Lake City Intl
United States
Destination: KLAX Los Angeles Intl
United States
More flights between these airports :: More routes between these airports
Route: ++ ZIONZ1 EHK + LAKRR Q88 HAKMN ANJLL4
File this flight plan on PilotEdge
Remarks: PBN / A1B1C1D1O1S1 DOF / 181003 REG / N320SB EET / KZLA0034 OPR / DAL PER / C RMK / TCAS SIMBRIEF
Altitude:
(Current/Filed)
38,000ft
Speed:
(Current/Filed)
454kts
Departed: 02-Oct-18 05:47 PM
Arrived: 02-Oct-18 07:16 PM
Distance/Time
Traveled:
512nm/1:29
Distance/Time
To Go:
Arrived

Flight Plot

Page will automatically refresh every two minutes.

Flight plan parsing failed; only flown route is shown


Map Options




Map Legend


Flown Route
Filed Route
Departure Airport
Arrival Airport
Navaid (VOR, NDB)
Fix

Horizontal Profiles

Position Reports

Time Latitude Longitude Heading Altitude Ground
Speed
02-Oct-18 17:10 40.788553 -111.984284 252 4225ft 0kts
02-Oct-18 17:11 40.788553 -111.984284 252 4225ft 0kts
02-Oct-18 17:12 40.788553 -111.984284 252 4225ft 0kts
02-Oct-18 17:13 40.788553 -111.984284 252 4225ft 0kts
02-Oct-18 17:14 40.788553 -111.984284 252 4225ft 0kts
02-Oct-18 17:15 40.788553 -111.984284 252 4225ft 0kts
02-Oct-18 17:16 40.788553 -111.984284 252 4225ft 0kts
02-Oct-18 17:17 40.788553 -111.984284 252 4225ft 0kts
02-Oct-18 17:18 40.788553 -111.984284 252 4225ft 0kts
02-Oct-18 17:19 40.788553 -111.984284 252 4225ft 0kts
02-Oct-18 17:20 40.788553 -111.984284 252 4225ft 0kts
02-Oct-18 17:21 40.788553 -111.984284 252 4225ft 0kts
02-Oct-18 17:22 40.788553 -111.984284 252 4225ft 0kts
02-Oct-18 17:23 40.788553 -111.984284 252 4225ft 0kts
02-Oct-18 17:24 40.788553 -111.984284 252 4225ft 0kts
02-Oct-18 17:25 40.788553 -111.984284 252 4225ft 0kts
02-Oct-18 17:26 40.788553 -111.984284 252 4225ft 0kts
02-Oct-18 17:27 40.788553 -111.984284 252 4225ft 0kts
02-Oct-18 17:28 40.788553 -111.984284 252 4225ft 0kts
02-Oct-18 17:29 40.788553 -111.984284 252 4225ft 0kts
02-Oct-18 17:30 40.788553 -111.984284 252 4225ft 0kts
02-Oct-18 17:31 40.788553 -111.984284 252 4225ft 0kts
02-Oct-18 17:32 40.788553 -111.984284 252 4225ft 0kts
02-Oct-18 17:33 40.788553 -111.984284 252 4225ft 0kts
02-Oct-18 17:34 40.788571 -111.983967 285 4225ft 2kts
02-Oct-18 17:35 40.788200 -111.983566 355 4225ft 1kts
02-Oct-18 17:36 40.788182 -111.983564 354 4225ft 0kts
02-Oct-18 17:37 40.788335 -111.983555 8 4225ft 10kts
02-Oct-18 17:38 40.791195 -111.982969 355 4223ft 0kts
02-Oct-18 17:39 40.791195 -111.982969 355 4223ft 0kts
02-Oct-18 17:40 40.791195 -111.982969 355 4223ft 0kts
02-Oct-18 17:41 40.791825 -111.981592 84 4222ft 10kts
02-Oct-18 17:42 40.792504 -111.977783 351 4223ft 5kts
02-Oct-18 17:43 40.796059 -111.978806 353 4224ft 13kts
02-Oct-18 17:44 40.799680 -111.979248 356 4228ft 22kts
02-Oct-18 17:45 40.805866 -111.979913 354 4228ft 16kts
02-Oct-18 17:46 40.807435 -111.978610 85 4228ft 0kts
02-Oct-18 17:47 40.807436 -111.978602 87 4228ft 0kts
02-Oct-18 17:48 40.806369 -111.976804 173 4229ft 16kts
02-Oct-18 17:49 40.774752 -111.972352 170 5786ft 172kts
02-Oct-18 17:50 40.724865 -111.963373 174 8532ft 203kts
02-Oct-18 17:51 40.665516 -111.960102 176 11411ft 238kts
02-Oct-18 17:52 40.592383 -111.957063 178 13900ft 267kts
02-Oct-18 17:53 40.514633 -111.953928 181 16393ft 297kts
02-Oct-18 17:54 40.430576 -111.950125 179 19076ft 311kts
02-Oct-18 17:55 40.342995 -111.943924 180 21510ft 323kts
02-Oct-18 17:56 40.252411 -111.941222 190 23698ft 332kts
02-Oct-18 17:57 40.159276 -111.956009 190 25715ft 343kts
02-Oct-18 17:58 40.063456 -111.970359 189 27543ft 354kts
02-Oct-18 17:59 39.964491 -111.984808 189 29203ft 364kts
02-Oct-18 18:00 39.863488 -111.999538 189 30789ft 370kts
02-Oct-18 18:01 39.761068 -112.014422 189 32401ft 371kts
02-Oct-18 18:02 39.658622 -112.029290 188 33747ft 373kts
02-Oct-18 18:03 39.555351 -112.044236 188 34874ft 377kts
02-Oct-18 18:04 39.450634 -112.059332 188 35828ft 383kts
02-Oct-18 18:05 39.344261 -112.074440 188 36669ft 389kts
02-Oct-18 18:06 39.236284 -112.089728 188 37364ft 394kts
02-Oct-18 18:07 39.127628 -112.111274 203 37948ft 397kts
02-Oct-18 18:08 39.044364 -112.169813 210 38148ft 397kts
02-Oct-18 18:09 38.952636 -112.236555 210 38152ft 397kts
02-Oct-18 18:10 38.861528 -112.302685 210 38151ft 398kts
02-Oct-18 18:11 38.778692 -112.362647 210 38151ft 397kts
02-Oct-18 18:12 38.698160 -112.420776 210 38151ft 397kts
02-Oct-18 18:13 38.601828 -112.490095 210 38151ft 405kts
02-Oct-18 18:14 38.500837 -112.562402 209 38009ft 424kts
02-Oct-18 18:15 38.398549 -112.636157 210 38009ft 425kts
02-Oct-18 18:16 38.295625 -112.709516 211 38004ft 430kts
02-Oct-18 18:17 38.190766 -112.783939 211 38049ft 437kts
02-Oct-18 18:18 38.084292 -112.859298 211 38061ft 439kts
02-Oct-18 18:19 37.978016 -112.934247 211 38108ft 437kts
02-Oct-18 18:20 37.872015 -113.008816 211 38083ft 437kts
02-Oct-18 18:21 37.766348 -113.083310 212 38055ft 435kts
02-Oct-18 18:22 37.662476 -113.159731 212 38039ft 434kts
02-Oct-18 18:23 37.558000 -113.236073 212 38038ft 434kts
02-Oct-18 18:24 37.453767 -113.311951 212 38043ft 434kts
02-Oct-18 18:25 37.349754 -113.387416 212 38049ft 434kts
02-Oct-18 18:26 37.245250 -113.462987 212 37947ft 434kts
02-Oct-18 18:27 37.140705 -113.538337 212 37952ft 434kts
02-Oct-18 18:28 37.036308 -113.613310 212 37958ft 435kts
02-Oct-18 18:29 36.932630 -113.687300 212 37961ft 436kts
02-Oct-18 18:30 36.828042 -113.762613 212 37967ft 437kts
02-Oct-18 18:31 36.722465 -113.837667 212 37964ft 437kts
02-Oct-18 18:32 36.617580 -113.912027 212 37945ft 438kts
02-Oct-18 18:33 36.511690 -113.986896 212 37950ft 439kts
02-Oct-18 18:34 36.405718 -114.061597 212 37964ft 439kts
02-Oct-18 18:35 36.299570 -114.136189 212 37963ft 440kts
02-Oct-18 18:36 36.193392 -114.210575 212 37921ft 441kts
02-Oct-18 18:37 36.088507 -114.287034 222 37940ft 437kts
02-Oct-18 18:38 36.006077 -114.396157 231 37939ft 433kts
02-Oct-18 18:39 35.926437 -114.506224 231 37924ft 432kts
02-Oct-18 18:40 35.846647 -114.616168 231 37917ft 432kts
02-Oct-18 18:41 35.767001 -114.725571 230 37919ft 432kts
02-Oct-18 18:42 35.686981 -114.835122 231 37926ft 433kts
02-Oct-18 18:43 35.606385 -114.945368 230 37937ft 434kts
02-Oct-18 18:44 35.526224 -115.054779 230 37940ft 434kts
02-Oct-18 18:45 35.444322 -115.163020 229 37934ft 434kts
02-Oct-18 18:46 35.361511 -115.270896 229 37867ft 434kts
02-Oct-18 18:47 35.279325 -115.377722 229 37871ft 434kts
02-Oct-18 18:48 35.196890 -115.484556 229 37924ft 434kts
02-Oct-18 18:49 35.113832 -115.591823 229 37868ft 435kts
02-Oct-18 18:50 35.031170 -115.697487 229 37962ft 436kts
02-Oct-18 18:51 34.947584 -115.804045 228 37882ft 436kts
02-Oct-18 18:52 34.864653 -115.909442 229 37959ft 436kts
02-Oct-18 18:53 34.780718 -116.015784 229 37964ft 436kts
02-Oct-18 18:54 34.697239 -116.122083 229 37069ft 435kts
02-Oct-18 18:55 34.614461 -116.227275 229 36022ft 433kts
02-Oct-18 18:56 34.530582 -116.333527 228 33439ft 437kts
02-Oct-18 18:57 34.448481 -116.437166 228 31395ft 427kts
02-Oct-18 18:58 34.384994 -116.554531 245 29341ft 413kts
02-Oct-18 18:59 34.335051 -116.675566 245 27566ft 396kts
02-Oct-18 19:00 34.287420 -116.793926 246 25512ft 387kts
02-Oct-18 19:01 34.240955 -116.909148 246 23499ft 377kts
02-Oct-18 19:02 34.200231 -117.023343 254 21506ft 365kts
02-Oct-18 19:03 34.169285 -117.137657 254 19541ft 355kts
02-Oct-18 19:04 34.138630 -117.249382 254 17429ft 352kts
02-Oct-18 19:05 34.108170 -117.359751 254 15483ft 342kts
02-Oct-18 19:06 34.080688 -117.468035 256 13574ft 333kts
02-Oct-18 19:07 34.047619 -117.569454 249 11846ft 323kts
02-Oct-18 19:08 34.012817 -117.666112 247 10300ft 306kts
02-Oct-18 19:09 33.999262 -117.761286 262 9111ft 286kts
02-Oct-18 19:10 33.990049 -117.855429 262 7633ft 279kts
02-Oct-18 19:11 33.980921 -117.948766 262 5947ft 284kts
02-Oct-18 19:12 33.971949 -118.039332 262 5145ft 257kts
02-Oct-18 19:13 33.963967 -118.119154 262 4497ft 234kts
02-Oct-18 19:14 33.956392 -118.194331 261 3863ft 216kts
02-Oct-18 19:15 33.949688 -118.260982 262 3374ft 183kts
02-Oct-18 19:16 33.942465 -118.329543 263 634ft 210kts
02-Oct-18 19:17 33.937075 -118.384719 264 124ft 126kts
02-Oct-18 19:18 33.936420 -118.399323 290 116ft 21kts
02-Oct-18 19:19 33.938096 -118.404387 354 123ft 0kts
02-Oct-18 19:20 33.938317 -118.407380 317 127ft 19kts
02-Oct-18 19:21 33.940963 -118.407591 58 124ft 7kts
02-Oct-18 19:22 33.941066 -118.407307 69 124ft 0kts
02-Oct-18 19:23 33.941076 -118.407276 70 124ft 0kts

Navigation Log

Ident Type
Flight plan parsing failed, navigation log unavailable